METAR Data
IDs: Format: Raw Decoded Include TAF

Data at: 2300 UTC 10 May 2021

KPSO 102255Z AUTO 24011G19KT 10SM SCT036 SCT050 BKN090 14/M02 A2999 RMK AO2 T01361023
KPSO 102235Z AUTO 23023G35KT 10SM SCT060 BKN070 OVC090 13/M03 A3001 RMK AO2 T01321032
KPSO 102215Z AUTO 27017G32KT 10SM SCT046 SCT065 BKN090 15/M05 A2997 RMK AO2 T01541048
KPSO 102155Z AUTO 24017G27KT 10SM SCT046 SCT065 BKN100 15/M04 A2999 RMK AO2 T01521037
KPSO 102135Z AUTO 23020G33KT 10SM SCT049 SCT060 BKN095 15/M04 A2999 RMK AO2 T01451042
KPSO 102115Z AUTO 25022G31KT 10SM SCT042 SCT060 SCT080 16/M04 A2999 RMK AO2 T01601037
KPSO 102055Z AUTO 25020G32KT 10SM SCT050 SCT060 BKN085 14/M04 A3000 RMK AO2 T01441040
KPSO 102035Z AUTO 26025G29KT 10SM SCT060 BKN075 OVC090 14/M05 A3001 RMK AO2 LTG DSNT N T01401047
KPSO 102015Z AUTO 26022G29KT 10SM SCT070 BKN080 BKN100 15/M05 A3000 RMK AO2 T01491050
KPSO 101955Z AUTO 26021G29KT 10SM SCT075 SCT085 BKN110 16/M05 A3000 RMK AO2 T01601053
KPSO 101935Z AUTO 27028G35KT 10SM SCT065 SCT085 BKN110 16/M06 A3000 RMK AO2 T01601059
KPSO 101915Z AUTO 24015G27KT 10SM SCT055 SCT070 BKN075 14/M05 A3001 RMK AO2 T01411049
KPSO 101855Z AUTO 20020G33KT 10SM SCT038 BKN065 OVC090 13/M05 A3000 RMK AO2 T01331052
KPSO 101835Z AUTO 23023G31KT 10SM SCT060 SCT075 OVC090 15/M07 A3000 RMK AO2 T01501073
KPSO 101815Z AUTO 23021G31KT 10SM BKN100 OVC110 16/M09 A2999 RMK AO2 T01561092
KPSO 101755Z AUTO 24018G26KT 10SM BKN100 OVC120 16/M08 A3000 RMK AO2 T01581085 10158 20047
KPSO 101735Z AUTO 24016G19KT 10SM BKN090 BKN120 15/M08 A3000 RMK AO2 T01501076
KPSO 101715Z AUTO 23016G25KT 10SM BKN100 BKN120 15/M08 A3001 RMK AO2 T01531077
KPSO 101655Z AUTO 26012G20KT 10SM OVC110 15/M07 A3002 RMK AO2 T01451075
KPSO 101635Z AUTO 24014G20KT 10SM OVC110 14/M07 A3002 RMK AO2 T01371072
KPSO 101615Z AUTO 22013G21KT 10SM OVC120 14/M07 A3002 RMK AO2 T01371071
KPSO 101555Z AUTO 23011G18KT 10SM OVC110 13/M07 A3002 RMK AO2 T01331069
KPSO 101535Z AUTO 19007KT 10SM BKN120 12/M04 A3002 RMK AO2 T01221039
KPSO 101515Z AUTO 18006KT 10SM BKN120 12/M04 A3002 RMK AO2 T01181036
KPSO 101455Z AUTO 18006KT 10SM SCT120 11/M03 A3003 RMK AO2 T01141032
KPSO 101435Z AUTO 00000KT 10SM SCT120 10/M02 A3003 RMK AO2 T01011025
KPSO 101415Z AUTO 17005KT 10SM SCT090 SCT120 10/M02 A3003 RMK AO2 T00981023
KPSO 101355Z AUTO 00000KT 10SM BKN090 BKN120 09/M02 A3003 RMK AO2 T00901023
KPSO 101335Z AUTO 00000KT 10SM OVC090 08/M01 A3003 RMK AO2 T00831010
KPSO 101315Z AUTO 00000KT 10SM OVC100 07/M02 A3002 RMK AO2 T00681019
KPSO 101255Z AUTO 00000KT 10SM BKN110 05/M03 A3002 RMK AO2 T00531035
KPSO 101235Z AUTO 00000KT 10SM BKN095 05/M04 A3002 RMK AO2 T00541042
KPSO 101215Z AUTO 00000KT 10SM BKN100 OVC110 05/M04 A3002 RMK AO2 T00541041
KPSO 101155Z AUTO 00000KT 10SM OVC100 06/M04 A3001 RMK AO2 T00641042 10094 20064
KPSO 101135Z AUTO 15003KT 10SM OVC090 07/M04 A3001 RMK AO2 T00701041
KPSO 101115Z AUTO 00000KT 10SM OVC090 07/M04 A3002 RMK AO2 T00721045
KPSO 101055Z AUTO 00000KT 10SM OVC090 08/M06 A3002 RMK AO2 T00821057
KPSO 101035Z AUTO 00000KT 10SM OVC090 09/M06 A3003 RMK AO2 T00921064
KPSO 101015Z AUTO 00000KT 10SM OVC090 08/M05 A3004 RMK AO2 T00811050
KPSO 100955Z AUTO 00000KT 10SM OVC090 08/M04 A3003 RMK AO2 T00761044
KPSO 100935Z AUTO 00000KT 10SM SCT075 OVC090 08/M06 A3003 RMK AO2 T00801057
KPSO 100915Z AUTO 00000KT 10SM OVC090 07/M05 A3003 RMK AO2 T00721055
KPSO 100855Z AUTO 08004KT 10SM OVC090 08/M06 A3002 RMK AO2 T00811063
KPSO 100835Z AUTO 00000KT 10SM SCT080 OVC100 08/M07 A3003 RMK AO2 T00791071
KPSO 100815Z AUTO 32003KT 10SM OVC100 07/M06 A3003 RMK AO2 T00701064
KPSO 100755Z AUTO 15003KT 10SM OVC100 08/M08 A3002 RMK AO2 T00831078
KPSO 100735Z AUTO 10004KT 10SM BKN100 OVC120 09/M08 A3002 RMK AO2 T00851080
KPSO 100715Z AUTO 07003KT 10SM BKN110 08/M07 A3003 RMK AO2 T00801070
KPSO 100655Z AUTO 00000KT 10SM OVC100 09/M06 A3004 RMK AO2 LTG DSNT SE T00851062
KPSO 100635Z AUTO 14004KT 10SM OVC110 09/M07 A3004 RMK AO2 T00861069
KPSO 100615Z AUTO 00000KT 10SM OVC100 09/M08 A3004 RMK AO2 T00911077
KPSO 100555Z AUTO 33003KT 10SM OVC110 10/M07 A3003 RMK AO2 T00951068 10150 20080 401680000
KPSO 100535Z AUTO 00000KT 10SM BKN120 10/M08 A3003 RMK AO2 LTG DSNT SE T01011076
KPSO 100515Z AUTO 28006G09KT 10SM SCT070 BKN090 OVC120 12/M09 A3003 RMK AO2 T01151091
KPSO 100455Z AUTO 00000KT 10SM SCT070 BKN100 OVC110 09/M07 A3004 RMK AO2 T00881074
KPSO 100435Z AUTO 00000KT 10SM OVC110 08/M07 A3003 RMK AO2 T00831075
KPSO 100415Z AUTO 00000KT 10SM OVC110 08/M07 A3003 RMK AO2 T00841070
KPSO 100355Z AUTO 00000KT 10SM OVC120 10/M07 A3003 RMK AO2 T00981075
KPSO 100335Z AUTO 00000KT 10SM BKN120 08/M07 A3002 RMK AO2 T00841068
KPSO 100315Z AUTO 00000KT 10SM CLR 09/M07 A3002 RMK AO2 T00901066
KPSO 100255Z AUTO 00000KT 10SM CLR 10/M07 A3002 RMK AO2 T00961073
KPSO 100235Z AUTO 00000KT 10SM CLR 10/M08 A3001 RMK AO2 T00991076
KPSO 100215Z AUTO 00000KT 10SM SCT120 13/M10 A3001 RMK AO2 LTG DSNT E T01291097
KPSO 100155Z AUTO 26004KT 10SM SCT120 12/M09 A3001 RMK AO2 T01241089
KPSO 100135Z AUTO 25004KT 10SM CLR 13/M10 A3001 RMK AO2 T01341104
KPSO 100115Z AUTO 26009G14KT 10SM CLR 14/M11 A3000 RMK AO2 T01361108
KPSO 100055Z AUTO 25007G17KT 10SM CLR 14/M11 A3000 RMK AO2 T01401108
KPSO 100035Z AUTO 28011G16KT 10SM CLR 14/M11 A3000 RMK AO2 T01441111
KPSO 100015Z AUTO 26009G22KT 10SM CLR 15/M11 A3001 RMK AO2 T01451108
KPSO 092355Z AUTO 28013G29KT 10SM CLR 15/M11 A3001 RMK AO2 T01511110 10168 20146
KPSO 092335Z AUTO 25023G32KT 10SM SCT120 16/M11 A3001 RMK AO2 T01611109
KPSO 092315Z AUTO 25017G29KT 10SM CLR 16/M11 A3001 RMK AO2 T01611109
KPSO 092255Z AUTO 23021G29KT 10SM SCT120 16/M11 A3000 RMK AO2 T01631111
KPSO 092235Z AUTO 25012G27KT 10SM BKN110 16/M11 A3001 RMK AO2 T01581115
KPSO 092215Z AUTO 22019G30KT 10SM SCT110 16/M12 A3001 RMK AO2 T01581123
KPSO 092155Z AUTO 24021G31KT 10SM BKN110 16/M13 A3001 RMK AO2 T01581126
KPSO 092135Z AUTO 25024G31KT 10SM BKN110 16/M12 A3001 RMK AO2 T01611125
KPSO 092115Z AUTO 22016G29KT 10SM BKN120 16/M12 A3001 RMK AO2 T01591124
KPSO 092055Z AUTO 24019G27KT 10SM BKN110 16/M12 A3001 RMK AO2 T01621121
KPSO 092035Z AUTO 25011G27KT 10SM BKN110 16/M12 A3002 RMK AO2 T01631116
KPSO 092015Z AUTO 23016G24KT 10SM SCT110 16/M12 A3002 RMK AO2 T01591123
KPSO 091955Z AUTO 21015G27KT 10SM SCT110 16/M12 A3002 RMK AO2 T01631117
KPSO 091935Z AUTO 22019G25KT 10SM CLR 16/M12 A3002 RMK AO2 T01561123
KPSO 091915Z AUTO 27017G26KT 10SM CLR 16/M11 A3004 RMK AO2 T01591113
KPSO 091855Z AUTO 24020G26KT 10SM CLR 16/M12 A3003 RMK AO2 T01581116
KPSO 091835Z AUTO 23017G25KT 210V270 10SM CLR 15/M11 A3004 RMK AO2 T01541114
KPSO 091815Z AUTO 25014G25KT 10SM CLR 15/M12 A3005 RMK AO2 T01491118
KPSO 091755Z AUTO 24021G25KT 10SM CLR 14/M12 A3005 RMK AO2 T01441116 10146 20000
KPSO 091735Z AUTO 22012G21KT 10SM CLR 14/M12 A3005 RMK AO2 T01401124
KPSO 091715Z AUTO 22013G20KT 10SM CLR 13/M12 A3005 RMK AO2 T01321116
KPSO 091655Z AUTO 22013G19KT 10SM CLR 14/M13 A3005 RMK AO2 T01351126
KPSO 091635Z AUTO 23010G17KT 10SM CLR 13/M09 A3006 RMK AO2 T01271094
KPSO 091615Z AUTO 19005KT 10SM CLR 12/M06 A3007 RMK AO2 T01171063
KPSO 091555Z AUTO 24006KT 10SM CLR 11/M05 A3006 RMK AO2 T01111054
KPSO 091535Z AUTO 17004KT 10SM CLR 10/M04 A3007 RMK AO2 T01011044
KPSO 091515Z AUTO 16003KT 10SM CLR 09/M04 A3007 RMK AO2 T00941039
KPSO 091455Z AUTO 20004KT 10SM CLR 09/M04 A3007 RMK AO2 T00881040
KPSO 091435Z AUTO 19005KT 10SM CLR 09/M04 A3007 RMK AO2 T00851042
KPSO 091415Z AUTO 00000KT 10SM CLR 08/M03 A3007 RMK AO2 T00831032
KPSO 091355Z AUTO 00000KT 10SM CLR 07/M03 A3007 RMK AO2 T00711031
KPSO 091335Z AUTO 00000KT 10SM CLR 04/M02 A3006 RMK AO2 T00361021
KPSO 091315Z AUTO 00000KT 10SM CLR 02/M03 A3005 RMK AO2 T00171030
KPSO 091255Z AUTO 00000KT 10SM SCT100 02/M03 A3005 RMK AO2 T00231033
KPSO 091235Z AUTO 00000KT 10SM BKN100 00/M03 A3005 RMK AO2 T00041033
KPSO 091215Z AUTO 00000KT 10SM SCT100 00/M04 A3005 RMK AO2 T00001038
KPSO 091155Z AUTO 00000KT 10SM BKN100 01/M03 A3004 RMK AO2 T00111033 10055 20000
KPSO 091135Z AUTO 00000KT 10SM OVC100 02/M03 A3004 RMK AO2 T00181032
KPSO 091115Z AUTO 00000KT 10SM BKN100 01/M04 A3004 RMK AO2 T00051040